createdAt,value
2022-10-18T00:01:02.013Z,19.53
2022-10-18T00:03:30.386Z,20.63
2022-10-18T00:05:58.625Z,20.33
2022-10-18T00:08:28.130Z,21.00
2022-10-18T00:10:56.565Z,20.77
2022-10-18T00:13:24.770Z,21.53
2022-10-18T00:15:53.522Z,21.13
2022-10-18T00:18:21.883Z,21.17
2022-10-18T00:20:57.871Z,20.10
2022-10-18T00:23:26.133Z,21.00
2022-10-18T00:26:01.761Z,18.40
2022-10-18T00:28:30.176Z,18.83
2022-10-18T00:30:58.551Z,19.67
2022-10-18T00:33:26.769Z,21.13
2022-10-18T00:35:54.913Z,21.10
2022-10-18T00:38:23.123Z,20.83
2022-10-18T00:40:51.313Z,19.80
2022-10-18T00:43:20.806Z,19.70
2022-10-18T00:45:49.009Z,20.40
2022-10-18T00:48:17.541Z,21.03
2022-10-18T00:50:45.819Z,20.60
2022-10-18T00:53:15.960Z,20.70
2022-10-18T00:55:44.206Z,20.40
2022-10-18T00:58:13.225Z,20.30
2022-10-18T01:00:42.815Z,19.80
2022-10-18T01:03:11.312Z,20.73
2022-10-18T01:05:40.220Z,20.60
2022-10-18T01:08:29.806Z,19.13
2022-10-18T01:11:05.498Z,18.73
2022-10-18T01:13:39.574Z,19.17
2022-10-18T01:16:11.287Z,19.97
2022-10-18T01:18:41.896Z,19.13
2022-10-18T01:21:14.565Z,21.63
2022-10-18T01:23:51.701Z,22.43
2022-10-18T01:26:25.126Z,19.77
2022-10-18T01:28:58.682Z,19.20
2022-10-18T01:31:29.872Z,20.00
2022-10-18T01:33:59.496Z,18.43
2022-10-18T01:36:29.274Z,18.33
2022-10-18T01:38:59.268Z,18.70
2022-10-18T01:41:28.892Z,20.07
2022-10-18T01:43:59.074Z,18.30
2022-10-18T01:46:29.975Z,19.07
2022-10-18T01:48:58.617Z,17.53
2022-10-18T01:51:27.595Z,18.70
2022-10-18T01:53:55.808Z,20.07
2022-10-18T01:56:27.076Z,18.93
2022-10-18T01:59:04.596Z,19.10
2022-10-18T02:01:38.630Z,19.47
2022-10-18T02:04:08.953Z,18.27
2022-10-18T02:06:38.317Z,18.97
2022-10-18T02:09:10.458Z,19.37
2022-10-18T02:11:39.966Z,21.87
2022-10-18T02:14:09.635Z,17.43
2022-10-18T02:16:40.610Z,19.10
2022-10-18T02:19:12.249Z,19.97
2022-10-18T02:21:41.329Z,17.70
2022-10-18T02:24:09.857Z,19.97
2022-10-18T02:26:38.040Z,20.17
2022-10-18T02:29:06.305Z,20.03
2022-10-18T02:31:37.800Z,19.80
2022-10-18T02:34:10.656Z,19.27
2022-10-18T02:36:40.803Z,19.73
2022-10-18T02:39:14.279Z,19.13
2022-10-18T02:41:42.521Z,19.50
2022-10-18T02:44:10.795Z,19.70
2022-10-18T02:46:39.050Z,20.53
2022-10-18T02:49:08.815Z,19.30
2022-10-18T02:51:36.995Z,18.10
2022-10-18T02:54:05.275Z,18.43
2022-10-18T02:56:33.473Z,18.00
2022-10-18T02:59:01.660Z,19.30
2022-10-18T03:01:29.881Z,18.93
2022-10-18T03:03:58.072Z,18.70
2022-10-18T03:06:27.642Z,18.33
2022-10-18T03:08:55.857Z,18.57
2022-10-18T03:11:24.169Z,19.73
2022-10-18T03:13:52.328Z,20.57
2022-10-18T03:16:20.516Z,20.27
2022-10-18T03:18:48.677Z,20.67
2022-10-18T03:21:16.873Z,20.83
2022-10-18T03:23:46.414Z,22.07
2022-10-18T03:26:14.563Z,22.27
2022-10-18T03:28:42.822Z,21.87
2022-10-18T03:31:11.100Z,22.30
2022-10-18T03:33:39.264Z,24.23
2022-10-18T03:36:07.676Z,24.07
2022-10-18T03:38:35.850Z,23.47
2022-10-18T03:41:05.911Z,23.53
2022-10-18T03:43:34.089Z,22.23
2022-10-18T03:46:02.577Z,21.97
2022-10-18T03:48:30.769Z,23.30
2022-10-18T03:50:58.912Z,24.03
2022-10-18T03:53:27.157Z,24.33
2022-10-18T03:55:55.387Z,24.47
2022-10-18T03:58:24.996Z,24.53
2022-10-18T04:00:53.361Z,23.97
2022-10-18T04:03:22.346Z,23.47
2022-10-18T04:05:51.201Z,22.43
2022-10-18T04:08:19.897Z,22.77
2022-10-18T04:10:48.092Z,24.37
2022-10-18T04:13:16.244Z,23.63
2022-10-18T04:15:46.045Z,23.70
2022-10-18T04:18:14.216Z,23.50
2022-10-18T04:20:42.401Z,23.23
2022-10-18T04:23:10.612Z,24.03
2022-10-18T04:25:38.805Z,24.53
2022-10-18T04:28:07.116Z,25.63
2022-10-18T04:30:35.345Z,25.00
2022-10-18T04:33:04.883Z,25.80
2022-10-18T04:35:33.038Z,25.57
2022-10-18T04:38:01.223Z,26.03
2022-10-18T04:40:29.395Z,28.00
2022-10-18T04:42:57.564Z,28.30
2022-10-18T04:45:25.741Z,30.50
2022-10-18T04:47:53.923Z,30.17
2022-10-18T04:50:23.426Z,30.90
2022-10-18T04:52:53.369Z,32.13
2022-10-18T04:55:21.913Z,30.77
2022-10-18T04:57:54.123Z,31.47
2022-10-18T05:00:22.308Z,31.00
2022-10-18T05:02:50.494Z,29.93
2022-10-18T05:05:18.723Z,28.70
2022-10-18T05:07:48.294Z,30.30
2022-10-18T05:10:16.551Z,29.73
2022-10-18T05:12:44.764Z,29.07
2022-10-18T05:15:12.977Z,29.53
2022-10-18T05:17:41.173Z,30.10
2022-10-18T05:20:09.694Z,29.80
2022-10-18T05:22:37.911Z,30.07
2022-10-18T05:25:08.092Z,28.80
2022-10-18T05:27:36.538Z,28.87
2022-10-18T05:30:05.945Z,28.57
2022-10-18T05:32:34.758Z,29.37
2022-10-18T05:35:03.218Z,28.57
2022-10-18T05:37:31.502Z,28.77
2022-10-18T05:39:59.767Z,29.07
2022-10-18T05:42:29.498Z,31.47
2022-10-18T05:44:58.129Z,30.43
2022-10-18T05:47:26.461Z,29.07
2022-10-18T05:49:54.643Z,31.23
2022-10-18T05:52:22.978Z,29.90
2022-10-18T05:54:51.176Z,29.43
2022-10-18T05:57:19.494Z,30.33
2022-10-18T05:59:49.163Z,30.77
2022-10-18T06:02:19.904Z,29.87
2022-10-18T06:04:48.169Z,30.77
2022-10-18T06:07:16.399Z,30.53
2022-10-18T06:09:44.804Z,32.03
2022-10-18T06:12:13.234Z,30.90
2022-10-18T06:14:41.420Z,31.37
2022-10-18T06:17:10.949Z,30.83
2022-10-18T06:19:39.142Z,30.33
2022-10-18T06:22:07.334Z,30.53
2022-10-18T06:24:35.501Z,31.83
2022-10-18T06:27:08.112Z,31.93
2022-10-18T06:29:36.634Z,30.63
2022-10-18T06:32:05.151Z,30.27
2022-10-18T06:34:34.969Z,30.87
2022-10-18T06:37:03.158Z,31.13
2022-10-18T06:39:31.388Z,30.63
2022-10-18T06:41:59.681Z,30.40
2022-10-18T06:44:27.845Z,32.70
2022-10-18T06:46:56.092Z,32.97
2022-10-18T06:49:24.291Z,33.23
2022-10-18T06:51:55.563Z,32.90
2022-10-18T06:54:23.887Z,31.80
2022-10-18T06:56:52.065Z,33.70
2022-10-18T06:59:20.350Z,33.30
2022-10-18T07:01:48.685Z,32.13
2022-10-18T07:04:16.947Z,33.53
2022-10-18T07:06:45.169Z,32.73
2022-10-18T07:09:14.870Z,33.90
2022-10-18T07:11:43.044Z,33.27
2022-10-18T07:14:15.384Z,34.70
2022-10-18T07:16:44.617Z,34.17
2022-10-18T07:19:12.807Z,32.50
2022-10-18T07:21:41.058Z,31.97
2022-10-18T07:24:09.253Z,34.50
2022-10-18T07:26:38.894Z,31.40
2022-10-18T07:29:08.452Z,31.37
2022-10-18T07:31:38.362Z,31.73
2022-10-18T07:34:07.481Z,31.20
2022-10-18T07:36:36.020Z,31.57
2022-10-18T07:39:04.616Z,31.73
2022-10-18T07:41:33.764Z,32.00
2022-10-18T07:44:03.703Z,32.17
2022-10-18T07:46:31.950Z,31.23
2022-10-18T07:49:00.292Z,31.37
2022-10-18T07:51:30.884Z,28.40
2022-10-18T07:53:59.061Z,28.90
2022-10-18T07:56:27.267Z,29.23
2022-10-18T07:58:56.183Z,30.60
2022-10-18T08:01:26.260Z,29.13
2022-10-18T08:03:55.066Z,25.77
2022-10-18T08:06:24.464Z,28.80
2022-10-18T08:08:52.630Z,28.07
2022-10-18T08:11:22.331Z,27.77
2022-10-18T08:13:50.543Z,27.03
2022-10-18T08:16:20.374Z,26.70
2022-10-18T08:18:53.207Z,26.60
2022-10-18T08:21:22.005Z,26.87
2022-10-18T08:23:51.555Z,25.03
2022-10-18T08:26:20.890Z,25.50
2022-10-18T08:29:03.541Z,25.07
2022-10-18T08:31:37.669Z,23.70
2022-10-18T08:34:07.328Z,21.53
2022-10-18T08:36:35.710Z,21.97
2022-10-18T08:39:03.929Z,20.90
2022-10-18T08:41:39.431Z,20.50
2022-10-18T08:44:09.363Z,21.23
2022-10-18T08:46:39.052Z,20.80
2022-10-18T08:49:12.231Z,19.97
2022-10-18T08:51:41.655Z,19.00
2022-10-18T08:54:12.804Z,18.97
2022-10-18T08:56:44.996Z,18.67
2022-10-18T08:59:24.747Z,18.77
2022-10-18T09:01:59.386Z,19.03
2022-10-18T09:04:37.717Z,18.20
2022-10-18T09:07:15.197Z,19.20
2022-10-18T09:09:46.788Z,17.57
2022-10-18T09:12:22.165Z,18.03
2022-10-18T09:15:05.567Z,16.15
2022-10-18T09:17:37.339Z,16.67
2022-10-18T09:20:12.914Z,16.08
2022-10-18T09:22:45.260Z,16.70
2022-10-18T09:25:20.758Z,16.50
2022-10-18T09:27:53.650Z,15.60
2022-10-18T09:30:28.834Z,15.45
2022-10-18T09:33:01.821Z,15.63
2022-10-18T09:35:33.649Z,15.77
2022-10-18T09:38:04.166Z,15.55
2022-10-18T09:40:34.318Z,14.37
2022-10-18T09:43:04.841Z,14.48
2022-10-18T09:45:37.823Z,14.88
2022-10-18T09:48:09.516Z,14.25
2022-10-18T09:50:41.227Z,14.20
2022-10-18T09:53:14.851Z,15.07
2022-10-18T09:55:50.003Z,13.73
2022-10-18T09:58:19.372Z,13.63
2022-10-18T10:00:49.539Z,13.53
2022-10-18T10:03:17.704Z,13.53
2022-10-18T10:05:47.312Z,12.85
2022-10-18T10:08:15.580Z,11.85
2022-10-18T10:10:47.923Z,12.85
2022-10-18T10:13:22.113Z,11.48
2022-10-18T10:15:55.053Z,11.63
2022-10-18T10:18:24.315Z,10.45
2022-10-18T10:20:55.402Z,11.75
2022-10-18T10:23:24.794Z,10.95
2022-10-18T10:25:53.906Z,10.38
2022-10-18T10:28:23.371Z,9.80
2022-10-18T10:30:51.662Z,8.27
2022-10-18T10:33:33.892Z,8.13
2022-10-18T10:36:04.597Z,8.75
2022-10-18T10:38:33.192Z,7.82
2022-10-18T10:41:01.481Z,8.43
2022-10-18T10:43:38.090Z,7.45
2022-10-18T10:46:09.091Z,6.95
2022-10-18T10:48:42.696Z,7.13
2022-10-18T10:51:12.667Z,6.10
2022-10-18T10:53:45.419Z,5.93
2022-10-18T10:56:24.872Z,6.25
2022-10-18T10:58:53.759Z,6.68
2022-10-18T11:01:24.086Z,6.43
2022-10-18T11:03:53.021Z,5.97
2022-10-18T11:06:41.260Z,5.15
2022-10-18T11:09:13.955Z,5.22
2022-10-18T11:11:46.939Z,4.30
2022-10-18T11:14:25.626Z,4.20
2022-10-18T11:16:58.368Z,3.97
2022-10-18T11:19:34.510Z,2.80
2022-10-18T11:22:06.650Z,4.00
2022-10-18T11:24:35.776Z,4.55
2022-10-18T11:27:07.994Z,4.20
2022-10-18T11:29:43.493Z,4.60
2022-10-18T11:32:15.612Z,3.90
2022-10-18T11:34:53.961Z,3.38
2022-10-18T11:37:34.847Z,3.85
2022-10-18T11:40:13.186Z,2.50
2022-10-18T11:42:49.094Z,3.03
2022-10-18T11:45:26.315Z,2.50
2022-10-18T11:47:58.306Z,2.60
2022-10-18T11:50:32.391Z,2.70
2022-10-18T11:53:05.389Z,2.72
2022-10-18T11:55:51.301Z,2.97
2022-10-18T11:58:31.726Z,3.28
2022-10-18T12:01:03.110Z,3.60
2022-10-18T12:03:37.480Z,3.40
2022-10-18T12:06:07.674Z,3.20
2022-10-18T12:08:40.481Z,3.00
2022-10-18T12:11:11.728Z,3.30
2022-10-18T12:13:42.390Z,3.05
2022-10-18T12:16:11.293Z,2.80
2022-10-18T12:18:46.448Z,2.97
2022-10-18T12:21:14.888Z,3.10
2022-10-18T12:23:47.364Z,2.85
2022-10-18T12:26:15.921Z,2.75
2022-10-18T12:28:49.094Z,2.50
2022-10-18T12:31:22.579Z,2.90
2022-10-18T12:33:52.177Z,2.90
2022-10-18T12:36:29.860Z,3.33
2022-10-18T12:39:00.476Z,3.28
2022-10-18T12:41:30.533Z,2.60
2022-10-18T12:44:00.148Z,3.05
2022-10-18T12:46:44.491Z,2.03
2022-10-18T12:49:13.518Z,2.72
2022-10-18T12:51:51.954Z,2.55
2022-10-18T12:54:22.987Z,1.80
2022-10-18T12:56:51.459Z,2.20
2022-10-18T12:59:53.743Z,2.50
2022-10-18T13:02:29.606Z,2.10
2022-10-18T13:07:44.773Z,1.73
2022-10-18T13:10:39.838Z,2.08
2022-10-18T13:13:38.280Z,2.28
2022-10-18T13:16:06.182Z,2.38
2022-10-18T13:18:44.166Z,1.70
2022-10-18T13:21:16.616Z,1.90
2022-10-18T13:23:52.255Z,2.45
2022-10-18T13:29:11.520Z,2.55
2022-10-18T13:31:41.667Z,2.28
2022-10-18T13:34:24.719Z,2.20
2022-10-18T13:36:58.081Z,2.17
2022-10-18T13:39:26.601Z,1.88
2022-10-18T13:42:13.708Z,1.90
2022-10-18T13:44:44.768Z,1.90
2022-10-18T13:47:14.118Z,1.90
2022-10-18T13:49:59.576Z,1.67
2022-10-18T13:52:32.635Z,1.90
2022-10-18T13:55:16.275Z,2.25
2022-10-18T13:57:47.489Z,2.28
2022-10-18T14:00:28.637Z,1.60
2022-10-18T14:03:22.124Z,2.10
2022-10-18T14:06:03.868Z,1.60
2022-10-18T14:08:36.818Z,4.35
2022-10-18T14:11:06.593Z,4.40
2022-10-18T14:13:38.278Z,4.13
2022-10-18T14:16:12.517Z,2.20
2022-10-18T14:18:42.660Z,1.75
2022-10-18T14:21:21.457Z,2.03
2022-10-18T14:23:50.493Z,1.90
2022-10-18T14:26:19.559Z,2.00
2022-10-18T14:28:59.519Z,1.90
2022-10-18T14:31:29.922Z,4.70
2022-10-18T14:33:59.377Z,2.08
2022-10-18T14:36:28.702Z,2.22
2022-10-18T14:38:58.342Z,2.13
2022-10-18T14:41:27.301Z,6.78
2022-10-18T14:44:11.166Z,1.98
2022-10-18T14:46:45.003Z,1.60
2022-10-18T14:49:13.825Z,1.40
2022-10-18T14:51:43.472Z,1.60
2022-10-18T14:56:48.663Z,1.17
2022-10-18T14:59:19.327Z,1.40
2022-10-18T15:01:56.520Z,1.13
2022-10-18T15:04:30.948Z,1.50
2022-10-18T15:06:59.575Z,1.73
2022-10-18T15:12:01.743Z,2.00
2022-10-18T15:14:30.527Z,1.60
2022-10-18T15:17:03.384Z,1.50
2022-10-18T15:19:33.314Z,1.77
2022-10-18T15:22:27.206Z,1.95
2022-10-18T15:25:05.445Z,1.70
2022-10-18T15:27:36.909Z,1.90
2022-10-18T15:30:08.516Z,2.05
2022-10-18T15:32:38.173Z,1.70
2022-10-18T15:35:12.107Z,1.67
2022-10-18T15:37:42.254Z,2.28
2022-10-18T15:40:34.564Z,1.75
2022-10-18T15:43:03.898Z,2.22
2022-10-18T15:45:33.651Z,1.65
2022-10-18T15:48:18.760Z,1.38
2022-10-18T15:50:48.514Z,2.28
2022-10-18T15:53:34.592Z,2.58
2022-10-18T15:56:03.978Z,1.77
2022-10-18T15:58:39.026Z,1.50
2022-10-18T16:01:08.463Z,1.77
2022-10-18T16:03:39.448Z,1.98
2022-10-18T16:06:08.772Z,1.92
2022-10-18T16:08:40.625Z,1.90
2022-10-18T16:11:08.876Z,1.90
2022-10-18T16:13:37.060Z,2.30
2022-10-18T16:16:05.366Z,1.70
2022-10-18T16:18:33.563Z,1.90
2022-10-18T16:21:03.244Z,1.73
2022-10-18T16:23:31.433Z,1.38
2022-10-18T16:25:59.688Z,2.20
2022-10-18T16:28:31.705Z,1.88
2022-10-18T16:31:01.127Z,2.30
2022-10-18T16:33:29.338Z,2.47
2022-10-18T16:35:57.568Z,2.53
2022-10-18T16:38:34.175Z,2.58
2022-10-18T16:41:03.443Z,1.90
2022-10-18T16:43:31.620Z,2.17
2022-10-18T16:45:59.881Z,2.20
2022-10-18T16:48:28.518Z,2.08
2022-10-18T16:50:57.911Z,2.50
2022-10-18T16:53:28.794Z,2.47
2022-10-18T16:55:59.464Z,2.60
2022-10-18T16:58:28.708Z,3.08
2022-10-18T17:00:57.107Z,3.80
2022-10-18T17:03:25.880Z,3.42
2022-10-18T17:05:54.180Z,3.63
2022-10-18T17:08:23.319Z,3.90
2022-10-18T17:10:54.889Z,3.13
2022-10-18T17:13:24.918Z,5.70
2022-10-18T17:15:53.551Z,4.13
2022-10-18T17:18:22.706Z,3.80
2022-10-18T17:20:53.206Z,4.30
2022-10-18T17:23:21.710Z,4.23
2022-10-18T17:26:04.998Z,4.30
2022-10-18T17:28:39.089Z,3.73
2022-10-18T17:31:08.099Z,4.63
2022-10-18T17:33:36.417Z,3.80
2022-10-18T17:36:04.863Z,4.87
2022-10-18T17:38:33.079Z,5.23
2022-10-18T17:41:01.307Z,5.87
2022-10-18T17:43:29.606Z,5.23
2022-10-18T17:45:59.166Z,5.63
2022-10-18T17:48:29.068Z,6.70
2022-10-18T17:50:57.465Z,6.10
2022-10-18T17:53:29.006Z,6.63
2022-10-18T17:56:02.561Z,5.70
2022-10-18T17:58:31.729Z,5.65
2022-10-18T18:01:09.436Z,5.90
2022-10-18T18:03:37.743Z,9.10
2022-10-18T18:06:13.432Z,10.27
2022-10-18T18:08:41.634Z,6.23
2022-10-18T18:11:09.830Z,6.40
2022-10-18T18:13:38.027Z,6.03
2022-10-18T18:16:14.595Z,5.60
2022-10-18T18:18:42.883Z,5.00
2022-10-18T18:21:11.223Z,5.40
2022-10-18T18:23:39.441Z,4.80
2022-10-18T18:26:07.815Z,4.47
2022-10-18T18:28:36.749Z,4.30
2022-10-18T18:31:06.967Z,5.83
2022-10-18T18:33:36.552Z,6.20
2022-10-18T18:36:06.623Z,6.17
2022-10-18T18:38:35.500Z,6.00
2022-10-18T18:41:04.283Z,5.30
2022-10-18T18:43:32.473Z,5.97
2022-10-18T18:46:00.671Z,6.10
2022-10-18T18:48:29.342Z,6.53
2022-10-18T18:50:58.925Z,7.17
2022-10-18T18:53:29.405Z,5.83
2022-10-18T18:56:02.397Z,4.90
2022-10-18T18:58:30.556Z,5.50
2022-10-18T19:00:58.834Z,6.00
2022-10-18T19:03:27.107Z,6.43
2022-10-18T19:06:05.438Z,6.57
2022-10-18T19:08:33.751Z,6.20
2022-10-18T19:11:02.021Z,6.43
2022-10-18T19:13:30.239Z,6.93
2022-10-18T19:16:11.718Z,6.67
2022-10-18T19:18:39.941Z,6.40
2022-10-18T19:21:09.492Z,7.07
2022-10-18T19:23:37.742Z,6.10
2022-10-18T19:26:12.183Z,6.77
2022-10-18T19:28:40.618Z,6.70
2022-10-18T19:31:08.916Z,6.60
2022-10-18T19:33:48.606Z,5.73
2022-10-18T19:36:26.709Z,5.07
2022-10-18T19:38:54.945Z,4.97
2022-10-18T19:43:51.942Z,4.77
2022-10-18T19:46:20.144Z,4.43
2022-10-18T19:48:48.417Z,5.33
2022-10-18T19:51:20.255Z,5.63
2022-10-18T19:53:53.570Z,6.03
2022-10-18T19:56:23.276Z,4.97
2022-10-18T19:58:51.712Z,5.47
2022-10-18T20:01:20.548Z,4.77
2022-10-18T20:03:49.278Z,4.50
2022-10-18T20:06:17.525Z,4.50
2022-10-18T20:08:45.889Z,4.03
2022-10-18T20:11:16.964Z,4.10
2022-10-18T20:13:45.435Z,4.20
2022-10-18T20:16:14.845Z,4.83
2022-10-18T20:18:44.055Z,5.10
2022-10-18T20:21:12.815Z,5.20
2022-10-18T20:23:42.397Z,5.57
2022-10-18T20:26:14.499Z,5.63
2022-10-18T20:28:47.702Z,5.57
2022-10-18T20:31:17.694Z,7.57
2022-10-18T20:33:45.976Z,6.67
2022-10-18T20:36:15.018Z,5.77
2022-10-18T20:38:43.977Z,5.20
2022-10-18T20:41:13.280Z,4.93
2022-10-18T20:43:41.965Z,5.00
2022-10-18T20:46:11.743Z,4.23
2022-10-18T20:48:40.015Z,5.10
2022-10-18T20:51:08.961Z,5.47
2022-10-18T20:56:09.904Z,4.73
2022-10-18T20:58:38.882Z,4.30
2022-10-18T21:01:08.208Z,4.57
2022-10-18T21:03:41.605Z,5.50
2022-10-18T21:06:10.696Z,4.93
2022-10-18T21:08:39.363Z,4.60
2022-10-18T21:11:08.935Z,4.97
2022-10-18T21:13:38.312Z,4.83
2022-10-18T21:16:07.311Z,4.53
2022-10-18T21:18:36.597Z,4.10
2022-10-18T21:21:14.195Z,4.47
2022-10-18T21:23:42.735Z,4.80
2022-10-18T21:26:15.813Z,61.07
2022-10-18T21:28:44.354Z,5.83
2022-10-18T21:31:14.428Z,5.13
2022-10-18T21:33:43.097Z,5.20
2022-10-18T21:36:13.635Z,5.10
2022-10-18T21:38:42.232Z,5.37
2022-10-18T21:41:11.272Z,4.07
2022-10-18T21:43:41.793Z,4.13
2022-10-18T21:46:11.024Z,4.30
2022-10-18T21:48:39.924Z,4.27
2022-10-18T21:51:09.798Z,3.80
2022-10-18T21:53:39.580Z,3.60
2022-10-18T21:56:09.246Z,3.33
2022-10-18T21:58:37.616Z,3.60
2022-10-18T22:01:08.441Z,3.23
2022-10-18T22:03:38.015Z,3.33
2022-10-18T22:06:09.017Z,3.63
2022-10-18T22:08:38.902Z,3.60
2022-10-18T22:11:09.054Z,3.80
2022-10-18T22:13:39.067Z,3.90
2022-10-18T22:16:08.626Z,3.17
2022-10-18T22:18:37.040Z,3.23
2022-10-18T22:21:06.684Z,3.67
2022-10-18T22:23:35.685Z,3.40
2022-10-18T22:26:05.763Z,3.67
2022-10-18T22:28:34.341Z,3.30
2022-10-18T22:31:02.689Z,3.30
2022-10-18T22:33:31.581Z,3.30
2022-10-18T22:36:00.485Z,3.30
2022-10-18T22:38:29.303Z,3.33
2022-10-18T22:40:57.553Z,4.27
2022-10-18T22:43:27.278Z,3.57
2022-10-18T22:45:55.557Z,3.83
2022-10-18T22:48:23.871Z,3.97
2022-10-18T22:50:52.311Z,3.30
2022-10-18T22:53:20.583Z,3.23
2022-10-18T22:55:48.972Z,3.90
2022-10-18T22:58:18.104Z,3.47
2022-10-18T23:00:48.021Z,2.97
2022-10-18T23:03:16.882Z,3.40
2022-10-18T23:05:46.222Z,3.23
2022-10-18T23:08:16.233Z,3.17
2022-10-18T23:10:44.592Z,3.00
2022-10-18T23:13:14.290Z,3.60
2022-10-18T23:15:42.580Z,3.00
2022-10-18T23:18:12.539Z,3.23
2022-10-18T23:20:41.508Z,3.50
2022-10-18T23:23:10.020Z,3.10
2022-10-18T23:25:39.137Z,3.33
2022-10-18T23:28:08.185Z,3.10
2022-10-18T23:30:39.181Z,3.17
2022-10-18T23:33:07.499Z,3.27
2022-10-18T23:35:38.365Z,3.20
2022-10-18T23:38:06.729Z,3.00
2022-10-18T23:40:35.105Z,2.97
2022-10-18T23:43:03.411Z,3.37
2022-10-18T23:45:31.689Z,3.60
2022-10-18T23:47:59.889Z,2.87
2022-10-18T23:50:28.155Z,3.47
2022-10-18T23:52:57.918Z,2.97
2022-10-18T23:55:26.146Z,3.13
2022-10-18T23:57:54.401Z,3.00
